Time;durP1;ratioP1;P1;durP2;ratioP2;P2;SDS_P1;SDS_P2;PMS_P1;PMS_P2;Temp;Humidity;BMP_temperature;BMP_pressure;BME280_temperature;BME280_humidity;BME280_pressure;Samples;Min_cycle;Max_cycle;Signal;HPM_P1;HPM_P2
2022/10/30 00:00:28;;;;;;;0.77;0.70;;;14.30;83.30;;;;;;5075216;28;20442;-71
2022/10/30 00:02:54;;;;;;;0.50;0.40;;;14.40;83.30;;;;;;5075336;28;20407;-69
2022/10/30 00:05:19;;;;;;;0.40;0.40;;;14.30;83.10;;;;;;5075444;28;20719;-68
2022/10/30 00:07:46;;;;;;;0.40;0.40;;;14.30;84.00;;;;;;5075248;28;20208;-68
2022/10/30 00:10:12;;;;;;;0.40;0.40;;;14.30;84.20;;;;;;5074932;28;20674;-70
2022/10/30 00:12:38;;;;;;;0.50;0.50;;;14.30;84.00;;;;;;5075236;28;20447;-69
2022/10/30 00:15:04;;;;;;;2.30;0.50;;;14.40;82.30;;;;;;5075113;28;20209;-70
2022/10/30 00:17:30;;;;;;;0.40;0.40;;;14.40;82.40;;;;;;5075147;28;20204;-69
2022/10/30 00:19:56;;;;;;;2.30;0.80;;;14.40;83.10;;;;;;5074826;28;20432;-71
2022/10/30 00:22:22;;;;;;;0.40;0.40;;;14.40;83.40;;;;;;5074948;28;20197;-71
2022/10/30 00:24:47;;;;;;;0.40;0.40;;;14.40;83.40;;;;;;5074933;28;20173;-71
2022/10/30 00:27:13;;;;;;;0.40;0.40;;;14.50;83.20;;;;;;5074867;28;20195;-71
2022/10/30 00:29:39;;;;;;;0.77;0.50;;;14.40;82.50;;;;;;5074610;28;20197;-71
2022/10/30 00:32:04;;;;;;;0.30;0.30;;;14.40;82.70;;;;;;5074703;28;20631;-70
2022/10/30 00:34:30;;;;;;;0.97;0.97;;;14.50;83.10;;;;;;5074801;28;20204;-69
2022/10/30 00:36:56;;;;;;;0.60;0.60;;;14.50;83.10;;;;;;5074643;28;20173;-69
2022/10/30 00:39:21;;;;;;;0.30;0.30;;;14.50;82.80;;;;;;5074381;28;20255;-68
2022/10/30 00:41:47;;;;;;;0.40;0.40;;;14.40;83.10;;;;;;5074588;28;20161;-69
2022/10/30 00:44:31;;;;;;;0.40;0.40;;;14.40;82.80;;;;;;5074741;28;20586;-70
2022/10/30 00:46:57;;;;;;;0.50;0.50;;;14.50;82.20;;;;;;5074338;28;20196;-71
2022/10/30 00:49:24;;;;;;;0.40;0.40;;;14.40;82.00;;;;;;5074186;28;20434;-71
2022/10/30 00:51:53;;;;;;;0.30;0.30;;;14.40;81.40;;;;;;5074369;28;20465;-68
2022/10/30 00:54:20;;;;;;;0.40;0.40;;;14.40;81.90;;;;;;5074297;28;20458;-68
2022/10/30 00:56:48;;;;;;;0.40;0.40;;;14.40;81.30;;;;;;5074516;28;20452;-71
2022/10/30 00:59:19;;;;;;;0.60;0.60;;;14.70;97.00;;;;;;5074194;28;20754;-71
2022/10/30 01:01:46;;;;;;;0.50;0.50;;;14.50;81.90;;;;;;5074679;28;20464;-71
2022/10/30 01:04:15;;;;;;;0.30;0.30;;;14.50;84.00;;;;;;5074134;28;20410;-70
2022/10/30 01:06:43;;;;;;;0.80;0.80;;;14.30;85.10;;;;;;5074143;28;20408;-69
2022/10/30 01:09:09;;;;;;;3.40;0.50;;;14.40;97.90;;;;;;5073975;28;20411;-68
2022/10/30 01:11:35;;;;;;;0.43;0.43;;;14.20;84.70;;;;;;5073998;28;20412;-71
2022/10/30 01:14:06;;;;;;;0.63;0.63;;;14.20;84.50;;;;;;5074009;28;20292;-71
2022/10/30 01:16:43;;;;;;;0.47;0.43;;;14.20;84.20;;;;;;5074176;28;20161;-70
2022/10/30 01:19:59;;;;;;;1.17;1.07;;;14.10;96.70;;;;;;5073661;28;20880;-71
2022/10/30 01:22:38;;;;;;;0.53;0.53;;;14.20;80.70;;;;;;4973123;28;20400;-70
2022/10/30 01:25:45;;;;;;;0.60;0.60;;;14.20;79.90;;;;;;4973263;28;20430;-71
2022/10/30 01:28:14;;;;;;;0.40;0.40;;;14.20;82.40;;;;;;5066006;28;20501;-70
2022/10/30 01:30:48;;;;;;;1.03;0.70;;;14.10;84.80;;;;;;5073478;28;20442;-68
2022/10/30 01:33:29;;;;;;;0.30;0.30;;;13.90;85.30;;;;;;5073541;28;20904;-70
2022/10/30 01:36:31;;;;;;;0.50;0.50;;;13.80;86.50;;;;;;5074057;28;20409;-71
2022/10/30 01:39:07;;;;;;;1.07;0.73;;;13.80;86.50;;;;;;5073582;28;20460;-71
2022/10/30 01:41:33;;;;;;;0.50;0.50;;;13.90;85.40;;;;;;5073795;28;20856;-69
2022/10/30 01:44:05;;;;;;;0.40;0.40;;;13.90;84.70;;;;;;5073775;28;20416;-69
2022/10/30 01:47:04;;;;;;;0.40;0.40;;;14.00;84.00;;;;;;5073734;28;20515;-70
2022/10/30 01:49:36;;;;;;;0.43;0.43;;;14.00;83.40;;;;;;5072570;28;20461;-71
2022/10/30 01:52:04;;;;;;;0.60;0.60;;;14.10;82.60;;;;;;5073532;28;20398;-69
2022/10/30 01:54:36;;;;;;;0.40;0.40;;;14.10;82.80;;;;;;5073346;28;20516;-69
2022/10/30 01:57:12;;;;;;;0.50;0.50;;;14.00;83.80;;;;;;5073535;28;20399;-69
2022/10/30 01:59:38;;;;;;;1.47;0.60;;;14.00;84.00;;;;;;5072609;28;20419;-71
2022/10/30 02:02:04;;;;;;;0.30;0.30;;;14.00;84.20;;;;;;5073325;28;20421;-71
2022/10/30 02:04:31;;;;;;;0.30;0.30;;;14.00;83.70;;;;;;5073384;28;20183;-69
2022/10/30 02:06:56;;;;;;;0.30;0.30;;;14.00;82.80;;;;;;5073408;28;20412;-70
2022/10/30 02:09:23;;;;;;;0.40;0.40;;;14.10;83.00;;;;;;5073175;28;20434;-71
2022/10/30 02:11:50;;;;;;;0.60;0.60;;;14.00;82.50;;;;;;5073292;28;20581;-71
2022/10/30 02:14:23;;;;;;;0.50;0.50;;;14.10;82.50;;;;;;5073394;28;20526;-70
2022/10/30 02:16:51;;;;;;;0.40;0.40;;;14.10;82.30;;;;;;5073509;28;20404;-69
2022/10/30 02:19:17;;;;;;;0.80;0.80;;;14.10;97.30;;;;;;5073314;28;20877;-70
2022/10/30 02:21:43;;;;;;;0.40;0.40;;;14.10;82.30;;;;;;5073323;28;20750;-70
2022/10/30 02:24:09;;;;;;;0.30;0.30;;;14.10;82.30;;;;;;5073140;28;20409;-69
2022/10/30 02:26:35;;;;;;;0.30;0.30;;;14.10;82.90;;;;;;5073008;28;20874;-68
2022/10/30 02:29:01;;;;;;;0.77;0.77;;;14.30;95.40;;;;;;5073016;28;20181;-69
2022/10/30 02:31:26;;;;;;;0.50;0.50;;;14.00;84.60;;;;;;5073184;28;20494;-69
2022/10/30 02:33:52;;;;;;;0.40;0.40;;;14.00;84.90;;;;;;5073623;28;20275;-70
2022/10/30 02:36:18;;;;;;;0.30;0.30;;;14.10;84.00;;;;;;5073166;28;20724;-71
2022/10/30 02:38:44;;;;;;;0.50;0.50;;;14.10;83.20;;;;;;5073123;28;20200;-68
2022/10/30 02:41:11;;;;;;;0.50;0.50;;;14.20;83.00;;;;;;5072702;28;20953;-70
2022/10/30 02:43:37;;;;;;;0.40;0.40;;;14.20;82.30;;;;;;5073135;28;20404;-70
2022/10/30 02:46:04;;;;;;;0.40;0.40;;;14.20;81.30;;;;;;5072905;28;20399;-69
2022/10/30 02:48:30;;;;;;;0.40;0.40;;;14.30;81.30;;;;;;5073206;28;20812;-70
2022/10/30 02:51:02;;;;;;;0.40;0.40;;;14.30;81.70;;;;;;5072671;28;20491;-70
2022/10/30 02:53:28;;;;;;;0.40;0.40;;;14.30;81.80;;;;;;5073076;28;20204;-68
2022/10/30 02:55:54;;;;;;;0.30;0.30;;;14.30;81.40;;;;;;5073028;28;20400;-70
2022/10/30 02:58:20;;;;;;;1.80;0.50;;;14.30;81.50;;;;;;5073280;28;20469;-68
2022/10/30 03:00:46;;;;;;;0.50;0.50;;;14.20;83.30;;;;;;5071330;28;20952;-70
2022/10/30 03:03:11;;;;;;;0.30;0.30;;;14.20;84.00;;;;;;5072860;28;20407;-71
2022/10/30 03:05:37;;;;;;;0.40;0.40;;;14.20;83.60;;;;;;5073019;28;20183;-69
2022/10/30 03:08:03;;;;;;;2.30;0.50;;;14.20;83.50;;;;;;5072897;28;20172;-70
2022/10/30 03:10:28;;;;;;;0.70;0.40;;;14.20;82.40;;;;;;5073627;28;20219;-69
2022/10/30 03:12:54;;;;;;;0.40;0.40;;;14.20;80.60;;;;;;5076261;28;20174;-70
2022/10/30 03:15:22;;;;;;;0.60;0.60;;;14.30;80.20;;;;;;5076130;28;20205;-71
2022/10/30 03:17:51;;;;;;;0.30;0.30;;;14.40;78.50;;;;;;5076182;28;20491;-70
2022/10/30 03:20:17;;;;;;;0.50;0.50;;;14.50;77.80;;;;;;5076103;28;20441;-69
2022/10/30 03:22:43;;;;;;;0.40;0.40;;;14.50;79.30;;;;;;5076171;28;20419;-71
2022/10/30 03:25:08;;;;;;;0.50;0.50;;;14.60;79.40;;;;;;5076046;28;20403;-71
2022/10/30 03:27:34;;;;;;;0.77;0.73;;;14.50;80.10;;;;;;5076290;28;20197;-68
2022/10/30 03:29:59;;;;;;;0.40;0.40;;;14.50;80.60;;;;;;5075782;28;20577;-68
2022/10/30 03:32:25;;;;;;;0.40;0.40;;;14.40;83.20;;;;;;5076033;28;20183;-69
2022/10/30 03:34:51;;;;;;;0.40;0.40;;;14.30;84.50;;;;;;5075951;28;20212;-70
2022/10/30 03:37:16;;;;;;;0.50;0.50;;;14.20;84.50;;;;;;5075980;28;20172;-71
2022/10/30 03:39:42;;;;;;;1.80;1.70;;;14.10;84.60;;;;;;5075653;28;20196;-70
2022/10/30 03:42:07;;;;;;;0.30;0.30;;;14.10;84.90;;;;;;5075958;28;20172;-70
2022/10/30 03:44:33;;;;;;;0.30;0.30;;;14.00;85.10;;;;;;5075931;28;20267;-69
2022/10/30 03:46:59;;;;;;;0.70;0.50;;;14.00;85.10;;;;;;5075879;28;20184;-68
2022/10/30 03:49:24;;;;;;;1.33;0.73;;;13.90;85.30;;;;;;5075531;28;20185;-69
2022/10/30 03:51:50;;;;;;;0.30;0.30;;;13.80;85.30;;;;;;5075582;28;20184;-69
2022/10/30 03:54:17;;;;;;;0.40;0.40;;;13.80;85.20;;;;;;5075592;28;20235;-68
2022/10/30 03:56:43;;;;;;;0.30;0.30;;;13.80;85.10;;;;;;5075501;28;20169;-68
2022/10/30 03:59:09;;;;;;;1.67;1.27;;;13.80;97.90;;;;;;5075630;28;20490;-71
2022/10/30 04:01:35;;;;;;;1.37;0.90;;;13.80;84.30;;;;;;5075401;28;20488;-70
2022/10/30 04:04:00;;;;;;;0.40;0.40;;;13.80;84.10;;;;;;5075518;28;20217;-69
2022/10/30 04:06:26;;;;;;;0.40;0.40;;;13.80;83.70;;;;;;5075598;28;20263;-70
2022/10/30 04:08:54;;;;;;;0.30;0.30;;;13.80;83.60;;;;;;5075010;28;20186;-68
2022/10/30 04:11:19;;;;;;;2.50;2.30;;;13.80;82.90;;;;;;5075159;28;20202;-70
2022/10/30 04:13:45;;;;;;;1.23;0.60;;;13.80;83.60;;;;;;5075104;28;20553;-68
2022/10/30 04:16:10;;;;;;;0.30;0.30;;;13.70;84.70;;;;;;5075171;28;20204;-69
2022/10/30 04:18:36;;;;;;;1.47;0.80;;;13.70;85.30;;;;;;5075203;28;20201;-69
2022/10/30 04:21:02;;;;;;;0.60;0.60;;;13.70;84.80;;;;;;5074798;28;20250;-68
2022/10/30 04:23:28;;;;;;;0.40;0.40;;;13.70;84.10;;;;;;5074399;28;20582;-71
2022/10/30 04:25:54;;;;;;;1.10;1.03;;;;;;;;;;5074768;28;20462;-69
2022/10/30 04:28:20;;;;;;;0.30;0.30;;;13.60;83.60;;;;;;5074906;28;20203;-69
2022/10/30 04:30:46;;;;;;;0.30;0.30;;;13.60;84.70;;;;;;5074850;28;20427;-71
2022/10/30 04:33:13;;;;;;;0.40;0.40;;;13.60;84.60;;;;;;5074774;28;20403;-70
2022/10/30 04:35:41;;;;;;;0.30;0.30;;;13.50;84.20;;;;;;5074734;28;20450;-71
2022/10/30 04:38:09;;;;;;;0.30;0.30;;;13.60;83.90;;;;;;5074576;28;20489;-71
2022/10/30 04:40:37;;;;;;;0.30;0.30;;;13.60;83.70;;;;;;5074444;28;20798;-70
2022/10/30 04:43:04;;;;;;;0.43;0.43;;;13.60;83.60;;;;;;5074616;28;20405;-69
2022/10/30 04:45:30;;;;;;;0.43;0.43;;;13.60;82.90;;;;;;5074629;28;20740;-68
2022/10/30 04:48:03;;;;;;;1.07;0.73;;;13.50;82.50;;;;;;5074597;28;20406;-70
2022/10/30 04:50:31;;;;;;;0.70;0.70;;;13.60;80.40;;;;;;5074228;28;20479;-71
2022/10/30 04:53:07;;;;;;;1.17;0.70;;;13.70;79.60;;;;;;5074590;28;20739;-70
2022/10/30 04:55:33;;;;;;;0.30;0.30;;;13.70;79.60;;;;;;5074208;28;20509;-69
2022/10/30 04:58:03;;;;;;;1.43;1.33;;;13.70;79.50;;;;;;5074319;28;20435;-71
2022/10/30 05:00:29;;;;;;;0.30;0.30;;;13.80;80.10;;;;;;5073954;28;20459;-69
2022/10/30 05:02:58;;;;;;;0.63;0.63;;;13.80;80.00;;;;;;5074137;28;20403;-70
2022/10/30 05:05:24;;;;;;;0.50;0.40;;;13.70;80.00;;;;;;5074100;28;20419;-71
2022/10/30 05:07:50;;;;;;;0.30;0.30;;;13.70;79.30;;;;;;5074078;28;20475;-70
2022/10/30 05:10:17;;;;;;;0.60;0.60;;;13.70;81.80;;;;;;5073835;28;20253;-69
2022/10/30 05:12:44;;;;;;;0.40;0.40;;;13.60;84.30;;;;;;5074114;28;20508;-69
2022/10/30 05:15:11;;;;;;;0.30;0.30;;;13.60;84.80;;;;;;5073856;28;20446;-71
2022/10/30 05:17:37;;;;;;;0.40;0.40;;;13.50;84.30;;;;;;5074113;28;20492;-69
2022/10/30 05:20:04;;;;;;;0.63;0.60;;;13.40;85.00;;;;;;5073907;28;20447;-69
2022/10/30 05:22:29;;;;;;;1.43;0.93;;;13.50;84.40;;;;;;5073805;28;20244;-71
2022/10/30 05:24:55;;;;;;;0.50;0.50;;;13.40;84.60;;;;;;5073850;28;20419;-69
2022/10/30 05:27:21;;;;;;;0.70;0.70;;;13.40;85.00;;;;;;5073781;28;20198;-68
2022/10/30 05:29:46;;;;;;;0.50;0.50;;;13.30;84.10;;;;;;5073485;28;20210;-69
2022/10/30 05:32:12;;;;;;;0.90;0.90;;;13.40;84.20;;;;;;5073666;28;20177;-71
2022/10/30 05:34:37;;;;;;;0.40;0.40;;;13.40;84.10;;;;;;5072696;28;20266;-71
2022/10/30 05:37:03;;;;;;;0.40;0.40;;;13.40;83.80;;;;;;5073858;28;20172;-71
2022/10/30 05:39:29;;;;;;;0.80;0.80;;;13.40;81.50;;;;;;5073546;28;20191;-69
2022/10/30 05:41:54;;;;;;;7.30;0.83;;;13.50;81.20;;;;;;5073699;28;20215;-69
2022/10/30 05:44:20;;;;;;;0.80;0.80;;;13.40;81.30;;;;;;5073663;28;20181;-68
2022/10/30 05:46:46;;;;;;;0.40;0.40;;;13.50;81.70;;;;;;5073712;28;20181;-68
2022/10/30 05:49:12;;;;;;;0.40;0.40;;;13.20;97.00;;;;;;5073293;28;20515;-71
2022/10/30 05:51:37;;;;;;;0.30;0.30;;;13.30;82.60;;;;;;5072212;28;20429;-71
2022/10/30 05:54:03;;;;;;;0.50;0.50;;;13.30;82.60;;;;;;5073434;28;20200;-70
2022/10/30 05:56:29;;;;;;;0.77;0.47;;;13.40;82.60;;;;;;5073563;28;20635;-67
2022/10/30 05:58:54;;;;;;;0.50;0.50;;;13.40;80.50;;;;;;5073395;28;20227;-69
2022/10/30 06:01:20;;;;;;;2.00;0.50;;;13.50;80.20;;;;;;5073278;28;20208;-69
2022/10/30 06:03:46;;;;;;;0.30;0.30;;;13.50;82.50;;;;;;5073136;28;20184;-69
2022/10/30 06:06:12;;;;;;;0.60;0.60;;;;;;;;;;5073382;28;20687;-69
2022/10/30 06:08:38;;;;;;;0.50;0.50;;;13.40;81.90;;;;;;5073372;28;20411;-67
2022/10/30 06:11:03;;;;;;;0.30;0.30;;;13.40;83.60;;;;;;5073097;28;20440;-71
2022/10/30 06:13:29;;;;;;;1.07;1.00;;;13.30;84.70;;;;;;5073379;28;20674;-68
2022/10/30 06:15:55;;;;;;;0.30;0.30;;;13.30;85.40;;;;;;5073210;28;20184;-70
2022/10/30 06:18:21;;;;;;;0.30;0.30;;;13.30;85.50;;;;;;5073654;28;20170;-70
2022/10/30 06:20:47;;;;;;;0.40;0.40;;;13.30;86.30;;;;;;5073004;28;20447;-68
2022/10/30 06:23:13;;;;;;;0.77;0.77;;;13.30;86.40;;;;;;5072009;28;20416;-69
2022/10/30 06:25:39;;;;;;;1.03;0.47;;;13.30;86.70;;;;;;5073238;28;20187;-68
2022/10/30 06:28:05;;;;;;;0.30;0.30;;;13.30;87.20;;;;;;5073262;28;20497;-69
2022/10/30 06:30:30;;;;;;;0.50;0.50;;;13.30;86.30;;;;;;5072871;28;20511;-71
2022/10/30 06:32:57;;;;;;;0.57;0.53;;;13.30;86.30;;;;;;5073031;28;20209;-70
2022/10/30 06:35:23;;;;;;;1.17;1.17;;;13.20;86.40;;;;;;5073222;28;20331;-70
2022/10/30 06:37:50;;;;;;;0.83;0.50;;;13.30;86.50;;;;;;5073134;28;20498;-70
2022/10/30 06:40:16;;;;;;;1.90;1.80;;;13.40;85.80;;;;;;5072753;28;20191;-70
2022/10/30 06:42:46;;;;;;;0.40;0.40;;;13.50;85.20;;;;;;5073048;28;20498;-71
2022/10/30 06:45:14;;;;;;;0.40;0.37;;;13.50;84.50;;;;;;5073909;28;20453;-70
2022/10/30 06:47:40;;;;;;;0.40;0.40;;;13.60;84.40;;;;;;5076796;28;20410;-70
2022/10/30 06:50:08;;;;;;;0.50;0.50;;;13.70;84.20;;;;;;5076362;28;20521;-69
2022/10/30 06:52:33;;;;;;;0.53;0.53;;;13.80;84.60;;;;;;5076769;28;20403;-71
2022/10/30 06:54:59;;;;;;;0.63;0.63;;;13.90;84.70;;;;;;5076638;28;20477;-70
2022/10/30 06:57:25;;;;;;;1.80;0.80;;;14.00;84.10;;;;;;5076775;28;20166;-69
2022/10/30 06:59:50;;;;;;;0.90;0.70;;;14.10;84.50;;;;;;5076337;28;20275;-71
2022/10/30 07:02:16;;;;;;;0.40;0.40;;;14.10;85.40;;;;;;5076510;28;20173;-72
2022/10/30 07:04:42;;;;;;;0.30;0.30;;;14.20;85.50;;;;;;5076407;28;20607;-69
2022/10/30 07:07:07;;;;;;;0.40;0.40;;;14.40;85.10;;;;;;5076464;28;20234;-71
2022/10/30 07:09:33;;;;;;;0.40;0.40;;;14.40;84.60;;;;;;5076085;28;20197;-70
2022/10/30 07:11:59;;;;;;;0.30;0.30;;;14.60;84.30;;;;;;5076318;28;20173;-70
2022/10/30 07:14:24;;;;;;;0.83;0.83;;;14.70;83.90;;;;;;5076374;28;20197;-71
2022/10/30 07:16:50;;;;;;;0.97;0.53;;;14.80;83.80;;;;;;5076245;28;20193;-69
2022/10/30 07:19:16;;;;;;;0.30;0.30;;;15.30;97.60;;;;;;5076039;28;20260;-69
2022/10/30 07:21:41;;;;;;;0.60;0.60;;;15.20;83.10;;;;;;5076248;28;20363;-70
2022/10/30 07:24:07;;;;;;;0.30;0.30;;;15.60;82.40;;;;;;5076326;28;20177;-68
2022/10/30 07:26:36;;;;;;;0.60;0.60;;;16.30;81.40;;;;;;5076051;28;20198;-70
2022/10/30 07:29:05;;;;;;;0.60;0.60;;;17.70;93.70;;;;;;5075898;28;20252;-69
2022/10/30 07:31:31;;;;;;;0.80;0.40;;;18.00;80.30;;;;;;5076349;28;20413;-71
2022/10/30 07:33:57;;;;;;;0.40;0.40;;;18.90;78.00;;;;;;5076211;28;20449;-69
2022/10/30 07:36:23;;;;;;;0.30;0.30;;;19.50;77.40;;;;;;5076106;28;20892;-71
2022/10/30 07:38:49;;;;;;;0.30;0.30;;;19.90;76.70;;;;;;5075987;28;20594;-71
2022/10/30 07:41:17;;;;;;;0.63;0.63;;;20.20;75.50;;;;;;5075754;28;20232;-71
2022/10/30 07:43:43;;;;;;;0.40;0.40;;;20.20;73.70;;;;;;5075910;28;20477;-71
2022/10/30 07:46:08;;;;;;;0.50;0.50;;;20.10;74.30;;;;;;5075874;28;20884;-72
2022/10/30 07:48:34;;;;;;;0.40;0.40;;;20.00;74.40;;;;;;5076041;28;20404;-71
2022/10/30 07:51:00;;;;;;;0.57;0.57;;;20.10;74.10;;;;;;5075610;28;20202;-69
2022/10/30 07:53:26;;;;;;;2.20;1.03;;;20.50;75.00;;;;;;5075674;28;20201;-71
2022/10/30 07:55:52;;;;;;;0.50;0.50;;;;;;;;;;5075760;28;20180;-71
2022/10/30 07:58:17;;;;;;;0.40;0.40;;;22.30;70.60;;;;;;5074600;28;20173;-71
2022/10/30 08:00:43;;;;;;;0.50;0.50;;;23.00;68.30;;;;;;5075140;28;20432;-72
2022/10/30 08:03:10;;;;;;;0.70;0.50;;;23.60;65.40;;;;;;5075603;28;20175;-71
2022/10/30 08:05:36;;;;;;;0.50;0.50;;;24.10;62.80;;;;;;5075740;28;20719;-69
2022/10/30 08:08:01;;;;;;;1.23;1.17;;;24.80;59.90;;;;;;5075491;28;20546;-70
2022/10/30 08:10:27;;;;;;;0.50;0.50;;;25.70;59.10;;;;;;5075076;28;20255;-71
2022/10/30 08:12:53;;;;;;;1.17;0.70;;;26.50;56.50;;;;;;5075445;28;20266;-72
2022/10/30 08:15:19;;;;;;;1.90;0.90;;;27.20;54.60;;;;;;5075126;28;20198;-69
2022/10/30 08:17:47;;;;;;;0.60;0.60;;;27.90;53.50;;;;;;5075076;28;20223;-72
2022/10/30 08:20:15;;;;;;;0.60;0.57;;;28.70;52.00;;;;;;5074845;28;20192;-71
2022/10/30 08:22:50;;;;;;;0.50;0.50;;;29.40;49.90;;;;;;5074977;28;20495;-71
2022/10/30 08:25:18;;;;;;;0.67;0.60;;;29.60;48.60;;;;;;5074939;28;20430;-72
2022/10/30 08:28:10;;;;;;;1.03;0.80;;;29.60;47.80;;;;;;5075133;28;20888;-72
2022/10/30 08:30:37;;;;;;;1.73;0.80;;;29.30;47.30;;;;;;5070571;28;20427;-73
2022/10/30 08:33:07;;;;;;;0.90;0.90;;;29.10;47.70;;;;;;5074960;28;20414;-71
2022/10/30 08:35:32;;;;;;;0.53;0.53;;;29.00;46.80;;;;;;5074790;28;20440;-70
2022/10/30 08:37:59;;;;;;;1.10;1.00;;;29.00;47.10;;;;;;5074869;28;20411;-70
2022/10/30 08:40:25;;;;;;;0.80;0.80;;;29.10;46.40;;;;;;5074346;28;20196;-69
2022/10/30 08:42:56;;;;;;;1.80;0.90;;;29.30;47.30;;;;;;5074593;28;20483;-72
2022/10/30 08:45:22;;;;;;;2.63;1.10;;;29.60;46.70;;;;;;5074869;28;20486;-72
2022/10/30 08:47:59;;;;;;;0.90;0.80;;;30.10;45.40;;;;;;5074658;28;20829;-69
2022/10/30 08:50:25;;;;;;;0.97;0.87;;;30.60;45.30;;;;;;5074304;28;20437;-69
2022/10/30 08:52:50;;;;;;;1.73;1.10;;;31.30;44.40;;;;;;5074601;28;20959;-69
2022/10/30 08:55:16;;;;;;;0.80;0.80;;;31.90;43.50;;;;;;5074622;28;20967;-69
2022/10/30 08:57:41;;;;;;;1.50;1.30;;;32.50;43.40;;;;;;5074386;28;20175;-68
2022/10/30 09:00:08;;;;;;;0.97;0.90;;;32.80;42.10;;;;;;5074012;28;20189;-69
2022/10/30 09:02:35;;;;;;;0.80;0.80;;;33.20;39.90;;;;;;5074165;28;20227;-70
2022/10/30 09:05:01;;;;;;;0.63;0.63;;;33.80;39.20;;;;;;5074253;28;20432;-70
2022/10/30 09:07:26;;;;;;;0.60;0.60;;;34.50;39.70;;;;;;5074043;28;20936;-69
2022/10/30 09:09:52;;;;;;;1.40;0.90;;;35.20;38.20;;;;;;5073787;28;20717;-70
2022/10/30 09:12:18;;;;;;;1.50;0.80;;;35.60;36.60;;;;;;5074000;28;20165;-68
2022/10/30 09:14:43;;;;;;;8.13;1.00;;;36.00;35.80;;;;;;5074102;28;20197;-71
2022/10/30 09:17:09;;;;;;;0.70;0.70;;;36.20;36.00;;;;;;5074024;28;20173;-70
2022/10/30 09:19:35;;;;;;;1.50;1.30;;;36.50;35.50;;;;;;5073635;28;20264;-68
2022/10/30 09:22:00;;;;;;;2.20;1.00;;;36.70;35.10;;;;;;5073827;28;20173;-71
2022/10/30 09:24:26;;;;;;;0.70;0.70;;;36.80;34.40;;;;;;5072569;28;20291;-70
2022/10/30 09:26:53;;;;;;;0.60;0.60;;;36.70;33.40;;;;;;5073733;28;20192;-68
2022/10/30 09:29:19;;;;;;;1.47;0.70;;;36.80;43.40;;;;;;5073716;28;20181;-70
2022/10/30 09:31:44;;;;;;;1.20;0.60;;;36.60;34.20;;;;;;5073682;28;20407;-71
2022/10/30 09:34:10;;;;;;;1.90;0.50;;;36.30;34.10;;;;;;5073515;28;20262;-71
2022/10/30 09:36:36;;;;;;;0.63;0.63;;;35.90;35.70;;;;;;5073681;28;20162;-71
2022/10/30 09:39:01;;;;;;;0.87;0.63;;;35.30;35.70;;;;;;5073630;28;20572;-70
2022/10/30 09:42:11;;;;;;;0.57;0.57;;;34.90;36.10;;;;;;5073721;28;20189;-71
2022/10/30 09:45:24;;;;;;;0.83;0.80;;;34.10;35.50;;;;;;5026855;28;20192;-70
2022/10/30 09:48:31;;;;;;;0.97;0.60;;;33.80;37.70;;;;;;5073755;28;20880;-70
2022/10/30 09:51:14;;;;;;;0.73;0.50;;;33.80;37.10;;;;;;5073384;28;20792;-68
2022/10/30 09:54:05;;;;;;;0.50;0.50;;;33.40;38.00;;;;;;5073364;28;20396;-68
2022/10/30 09:56:48;;;;;;;1.67;0.60;;;33.20;38.30;;;;;;5073613;28;20391;-71
2022/10/30 09:59:16;;;;;;;0.50;0.50;;;32.70;47.70;;;;;;5073218;28;20389;-68
2022/10/30 10:02:16;;;;;;;1.00;0.47;;;32.60;35.50;;;;;;5073433;28;20404;-68
2022/10/30 10:05:01;;;;;;;0.50;0.50;;;32.10;33.10;;;;;;5073550;28;20402;-71
2022/10/30 10:07:31;;;;;;;0.50;0.40;;;32.40;35.00;;;;;;5073565;28;20888;-69
2022/10/30 10:10:05;;;;;;;0.50;0.50;;;32.50;34.60;;;;;;5073074;28;20459;-70
2022/10/30 10:12:43;;;;;;;0.60;0.60;;;32.80;35.40;;;;;;5073370;28;20414;-68
2022/10/30 10:15:32;;;;;;;0.40;0.40;;;32.90;32.70;;;;;;5073397;28;20490;-70
2022/10/30 10:18:01;;;;;;;0.60;0.50;;;32.80;34.50;;;;;;5059981;28;20433;-70
2022/10/30 10:20:30;;;;;;;0.60;0.60;;;32.50;37.40;;;;;;5074240;28;20427;-69
2022/10/30 10:23:03;;;;;;;1.17;0.40;;;31.70;34.20;;;;;;5077337;28;20407;-69
2022/10/30 10:25:30;;;;;;;4.93;0.87;;;30.70;34.40;;;;;;5077391;28;20431;-70
2022/10/30 10:28:14;;;;;;;0.70;0.57;;;30.10;35.00;;;;;;5077372;28;20400;-68
2022/10/30 10:30:43;;;;;;;0.40;0.40;;;29.90;37.00;;;;;;5076922;28;20430;-70
2022/10/30 10:33:37;;;;;;;0.43;0.30;;;29.80;36.90;;;;;;5077080;28;20395;-68
2022/10/30 10:36:21;;;;;;;0.53;0.50;;;29.30;35.00;;;;;;5077287;28;20404;-68
2022/10/30 10:39:02;;;;;;;0.30;0.30;;;28.60;36.40;;;;;;5077273;28;20395;-68
2022/10/30 10:41:39;;;;;;;0.60;0.60;;;28.10;36.30;;;;;;5077007;28;20743;-68
2022/10/30 10:44:05;;;;;;;4.60;0.60;;;27.90;39.80;;;;;;5077149;28;20398;-70
2022/10/30 10:47:09;;;;;;;0.50;0.50;;;27.80;38.60;;;;;;5076998;28;20396;-70
2022/10/30 10:49:34;;;;;;;0.30;0.30;;;27.40;38.20;;;;;;5076601;28;20204;-68
2022/10/30 10:52:23;;;;;;;0.50;0.50;;;26.60;39.70;;;;;;5076883;28;20395;-69
2022/10/30 10:54:54;;;;;;;0.40;0.40;;;26.30;41.20;;;;;;5076207;28;20213;-69
2022/10/30 10:57:31;;;;;;;0.90;0.90;;;26.30;40.40;;;;;;5076796;28;20487;-71
2022/10/30 11:00:06;;;;;;;1.53;0.50;;;26.40;40.60;;;;;;5076377;28;20469;-69
2022/10/30 11:02:39;;;;;;;0.40;0.40;;;26.60;42.30;;;;;;5076525;28;20413;-68
2022/10/30 11:05:14;;;;;;;0.40;0.40;;;26.60;44.10;;;;;;5076738;28;20399;-68
2022/10/30 11:07:50;;;;;;;0.30;0.30;;;26.70;41.20;;;;;;5076605;28;20752;-69
2022/10/30 11:10:18;;;;;;;0.77;0.50;;;26.70;40.70;;;;;;5076141;28;20438;-70
2022/10/30 11:12:44;;;;;;;0.93;0.67;;;26.60;41.00;;;;;;5076541;28;20912;-72
2022/10/30 11:15:18;;;;;;;0.60;0.60;;;26.50;46.60;;;;;;5076449;28;20443;-70
2022/10/30 11:17:58;;;;;;;0.50;0.50;;;26.40;44.90;;;;;;5076221;28;20168;-72
2022/10/30 11:20:42;;;;;;;0.80;0.60;;;26.20;42.60;;;;;;5076070;28;20754;-71
2022/10/30 11:23:30;;;;;;;0.40;0.40;;;26.20;42.70;;;;;;5076244;28;20381;-71
2022/10/30 11:25:56;;;;;;;0.50;0.50;;;26.00;42.40;;;;;;5076115;28;20757;-72
2022/10/30 11:28:47;;;;;;;0.40;0.40;;;25.80;42.90;;;;;;5076006;28;20396;-71
2022/10/30 11:31:33;;;;;;;1.53;1.07;;;25.90;42.90;;;;;;5075987;28;20669;-71
2022/10/30 11:34:17;;;;;;;1.23;0.70;;;25.90;47.00;;;;;;5076137;28;20576;-72
2022/10/30 11:36:53;;;;;;;0.77;0.63;;;26.00;49.50;;;;;;5076084;28;20401;-72
2022/10/30 11:39:27;;;;;;;0.70;0.70;;;26.20;56.10;;;;;;5075854;28;20882;-71
2022/10/30 11:42:00;;;;;;;0.60;0.60;;;25.90;45.90;;;;;;5076020;28;20383;-72
2022/10/30 11:44:40;;;;;;;0.60;0.53;;;26.00;44.50;;;;;;5076022;28;20415;-70
2022/10/30 11:47:07;;;;;;;0.33;0.33;;;26.10;43.40;;;;;;5075982;28;20396;-71
2022/10/30 11:49:45;;;;;;;0.87;0.50;;;26.00;43.20;;;;;;5075617;28;20758;-70
2022/10/30 11:52:14;;;;;;;0.50;0.50;;;25.80;41.10;;;;;;5075912;28;20387;-70
2022/10/30 11:54:45;;;;;;;0.50;0.50;;;25.80;45.80;;;;;;5075739;28;20854;-72
2022/10/30 11:57:22;;;;;;;0.53;0.53;;;25.80;44.20;;;;;;5075751;28;20371;-71
2022/10/30 11:59:52;;;;;;;0.40;0.40;;;25.80;43.30;;;;;;5075340;28;20419;-72
2022/10/30 12:02:28;;;;;;;0.50;0.50;;;25.90;43.30;;;;;;5075457;28;20391;-72
2022/10/30 12:04:59;;;;;;;0.50;0.50;;;25.90;41.20;;;;;;5075653;28;20388;-70
2022/10/30 12:07:33;;;;;;;0.40;0.40;;;25.80;41.90;;;;;;5075748;28;20371;-72
2022/10/30 12:10:01;;;;;;;1.63;1.10;;;25.80;42.70;;;;;;5075139;28;20420;-69
2022/10/30 12:12:40;;;;;;;0.60;0.50;;;25.80;43.90;;;;;;5075250;28;20495;-70
2022/10/30 12:15:22;;;;;;;0.70;0.70;;;25.80;43.50;;;;;;5075141;28;20459;-69
2022/10/30 12:17:59;;;;;;;0.40;0.40;;;25.80;42.10;;;;;;5075323;28;20393;-71
2022/10/30 12:20:26;;;;;;;0.70;0.70;;;25.80;41.90;;;;;;5074897;28;20423;-71
2022/10/30 12:22:52;;;;;;;0.30;0.30;;;25.70;44.30;;;;;;5074994;28;20390;-70
2022/10/30 12:25:28;;;;;;;1.13;0.40;;;25.70;44.40;;;;;;5074829;28;20403;-71
2022/10/30 12:28:03;;;;;;;0.37;0.37;;;25.60;41.20;;;;;;5075147;28;20411;-71
2022/10/30 12:30:33;;;;;;;0.60;0.40;;;25.60;40.60;;;;;;5074651;28;20427;-72
2022/10/30 12:33:14;;;;;;;0.40;0.40;;;25.50;43.10;;;;;;5074861;28;20894;-69
2022/10/30 12:35:57;;;;;;;0.60;0.60;;;25.50;44.40;;;;;;5074776;28;20474;-71
2022/10/30 12:38:39;;;;;;;0.50;0.50;;;25.40;43.90;;;;;;5074814;28;20377;-73
2022/10/30 12:41:12;;;;;;;0.50;0.50;;;25.30;43.90;;;;;;5074459;28;20889;-69
2022/10/30 12:43:40;;;;;;;0.40;0.40;;;25.30;44.70;;;;;;5074289;28;20461;-69
2022/10/30 12:46:13;;;;;;;0.30;0.30;;;25.20;44.90;;;;;;5074778;28;20931;-72
2022/10/30 12:49:02;;;;;;;0.63;0.63;;;25.00;45.00;;;;;;5074705;28;20371;-72
2022/10/30 12:51:36;;;;;;;0.30;0.30;;;24.90;44.80;;;;;;5074434;28;20495;-71
2022/10/30 12:54:21;;;;;;;0.40;0.40;;;24.80;45.60;;;;;;5074578;28;20447;-72
2022/10/30 12:56:53;;;;;;;1.13;0.60;;;24.70;46.80;;;;;;5074406;28;20744;-71
2022/10/30 12:59:54;;;;;;;0.30;0.30;;;24.50;55.50;;;;;;5074174;28;20373;-70
2022/10/30 13:02:37;;;;;;;0.50;0.50;;;24.40;45.90;;;;;;5056891;28;20393;-71